sensor_id;sensor_type;location;lat;lon;timestamp;pressure;altitude;pressure_sealevel;temperature;humidity
15050;BME280;7622;42.724;23.250;2024-02-28T00:00:14;94935.50;;;8.29;100.00
15050;BME280;7622;42.724;23.250;2024-02-28T00:02:41;94944.56;;;8.35;100.00
15050;BME280;7622;42.724;23.250;2024-02-28T00:05:08;94938.13;;;7.96;100.00
15050;BME280;7622;42.724;23.250;2024-02-28T00:07:35;94937.19;;;7.97;100.00
15050;BME280;7622;42.724;23.250;2024-02-28T00:10:02;94947.53;;;8.08;100.00
15050;BME280;7622;42.724;23.250;2024-02-28T00:12:30;94936.59;;;8.04;100.00
15050;BME280;7622;42.724;23.250;2024-02-28T00:14:56;94945.28;;;8.03;100.00
15050;BME280;7622;42.724;23.250;2024-02-28T00:17:23;94946.59;;;8.09;100.00
15050;BME280;7622;42.724;23.250;2024-02-28T00:19:51;94946.31;;;8.23;100.00
15050;BME280;7622;42.724;23.250;2024-02-28T00:28:41;94949.41;;;8.06;100.00
15050;BME280;7622;42.724;23.250;2024-02-28T00:31:08;94943.44;;;7.83;100.00
15050;BME280;7622;42.724;23.250;2024-02-28T00:33:34;94942.97;;;7.89;100.00
15050;BME280;7622;42.724;23.250;2024-02-28T00:36:01;94949.22;;;7.86;100.00
15050;BME280;7622;42.724;23.250;2024-02-28T00:38:28;94935.34;;;7.87;100.00
15050;BME280;7622;42.724;23.250;2024-02-28T00:40:54;94938.66;;;7.78;100.00
15050;BME280;7622;42.724;23.250;2024-02-28T00:43:21;94936.25;;;7.98;100.00
15050;BME280;7622;42.724;23.250;2024-02-28T00:45:49;94936.19;;;7.88;100.00
15050;BME280;7622;42.724;23.250;2024-02-28T00:48:16;94942.53;;;7.73;100.00
15050;BME280;7622;42.724;23.250;2024-02-28T00:50:43;94946.44;;;7.67;100.00
15050;BME280;7622;42.724;23.250;2024-02-28T00:53:10;94940.19;;;7.81;100.00
15050;BME280;7622;42.724;23.250;2024-02-28T00:55:36;94948.75;;;7.93;100.00
15050;BME280;7622;42.724;23.250;2024-02-28T00:58:03;94934.19;;;7.69;100.00
15050;BME280;7622;42.724;23.250;2024-02-28T01:00:30;94945.38;;;7.81;100.00
15050;BME280;7622;42.724;23.250;2024-02-28T01:02:58;94943.47;;;7.94;100.00
15050;BME280;7622;42.724;23.250;2024-02-28T01:05:25;94955.69;;;7.92;100.00
15050;BME280;7622;42.724;23.250;2024-02-28T01:07:51;94950.03;;;7.76;100.00
15050;BME280;7622;42.724;23.250;2024-02-28T01:10:18;94945.94;;;7.84;100.00
15050;BME280;7622;42.724;23.250;2024-02-28T01:12:45;94951.56;;;8.01;100.00
15050;BME280;7622;42.724;23.250;2024-02-28T01:15:11;94948.16;;;8.00;100.00
15050;BME280;7622;42.724;23.250;2024-02-28T01:17:38;94951.69;;;7.88;100.00
15050;BME280;7622;42.724;23.250;2024-02-28T01:20:07;94949.00;;;7.78;100.00
15050;BME280;7622;42.724;23.250;2024-02-28T01:22:34;94951.59;;;7.67;100.00
15050;BME280;7622;42.724;23.250;2024-02-28T01:25:02;94943.38;;;7.73;100.00
15050;BME280;7622;42.724;23.250;2024-02-28T01:27:29;94948.88;;;7.80;100.00
15050;BME280;7622;42.724;23.250;2024-02-28T01:29:55;94942.06;;;7.79;100.00
15050;BME280;7622;42.724;23.250;2024-02-28T01:32:22;94956.94;;;7.98;100.00
15050;BME280;7622;42.724;23.250;2024-02-28T01:34:48;94965.31;;;7.90;100.00
15050;BME280;7622;42.724;23.250;2024-02-28T01:37:16;94961.06;;;7.89;100.00
15050;BME280;7622;42.724;23.250;2024-02-28T01:39:43;94959.66;;;7.96;100.00
15050;BME280;7622;42.724;23.250;2024-02-28T01:42:10;94967.44;;;7.85;100.00
15050;BME280;7622;42.724;23.250;2024-02-28T01:44:40;94970.47;;;7.90;100.00
15050;BME280;7622;42.724;23.250;2024-02-28T01:47:09;94970.34;;;8.03;100.00
15050;BME280;7622;42.724;23.250;2024-02-28T01:49:35;94966.25;;;8.00;100.00
15050;BME280;7622;42.724;23.250;2024-02-28T01:52:02;94964.72;;;7.98;100.00
15050;BME280;7622;42.724;23.250;2024-02-28T01:54:31;94966.00;;;8.03;100.00
15050;BME280;7622;42.724;23.250;2024-02-28T01:57:00;94967.41;;;8.07;100.00
15050;BME280;7622;42.724;23.250;2024-02-28T01:59:28;94969.50;;;8.13;100.00
15050;BME280;7622;42.724;23.250;2024-02-28T02:01:56;94968.09;;;8.20;100.00
15050;BME280;7622;42.724;23.250;2024-02-28T02:04:22;94966.59;;;8.07;100.00
15050;BME280;7622;42.724;23.250;2024-02-28T02:06:50;94963.88;;;7.97;100.00
15050;BME280;7622;42.724;23.250;2024-02-28T02:09:19;94960.81;;;8.03;100.00
15050;BME280;7622;42.724;23.250;2024-02-28T02:11:47;94967.16;;;8.10;100.00
15050;BME280;7622;42.724;23.250;2024-02-28T02:14:14;94963.50;;;8.13;100.00
15050;BME280;7622;42.724;23.250;2024-02-28T02:16:41;94959.88;;;8.15;100.00
15050;BME280;7622;42.724;23.250;2024-02-28T02:19:08;94967.50;;;8.17;100.00
15050;BME280;7622;42.724;23.250;2024-02-28T02:21:40;94961.75;;;8.13;100.00
15050;BME280;7622;42.724;23.250;2024-02-28T02:24:08;94954.38;;;8.09;100.00
15050;BME280;7622;42.724;23.250;2024-02-28T02:26:35;94957.50;;;8.12;100.00
15050;BME280;7622;42.724;23.250;2024-02-28T02:29:02;94955.63;;;8.03;100.00
15050;BME280;7622;42.724;23.250;2024-02-28T02:31:28;94962.38;;;7.83;100.00
15050;BME280;7622;42.724;23.250;2024-02-28T02:33:55;94966.97;;;7.69;100.00
15050;BME280;7622;42.724;23.250;2024-02-28T02:36:22;94971.31;;;7.68;100.00
15050;BME280;7622;42.724;23.250;2024-02-28T02:38:49;94973.47;;;7.74;100.00
15050;BME280;7622;42.724;23.250;2024-02-28T02:41:17;94968.84;;;7.78;100.00
15050;BME280;7622;42.724;23.250;2024-02-28T02:43:44;94970.28;;;7.60;100.00
15050;BME280;7622;42.724;23.250;2024-02-28T02:46:11;94969.56;;;7.58;100.00
15050;BME280;7622;42.724;23.250;2024-02-28T02:48:37;94968.97;;;7.43;100.00
15050;BME280;7622;42.724;23.250;2024-02-28T02:51:04;94935.84;;;7.37;100.00
15050;BME280;7622;42.724;23.250;2024-02-28T02:53:31;94968.41;;;7.73;100.00
15050;BME280;7622;42.724;23.250;2024-02-28T02:55:57;94966.28;;;7.67;100.00
15050;BME280;7622;42.724;23.250;2024-02-28T02:58:25;94965.13;;;7.60;100.00
15050;BME280;7622;42.724;23.250;2024-02-28T03:00:52;94969.78;;;7.55;100.00
15050;BME280;7622;42.724;23.250;2024-02-28T03:03:19;94969.56;;;7.58;100.00
15050;BME280;7622;42.724;23.250;2024-02-28T03:05:45;94964.41;;;7.58;100.00
15050;BME280;7622;42.724;23.250;2024-02-28T03:08:12;94967.09;;;7.56;100.00
15050;BME280;7622;42.724;23.250;2024-02-28T03:10:39;94972.38;;;7.43;100.00
15050;BME280;7622;42.724;23.250;2024-02-28T03:13:05;94971.22;;;7.36;100.00
15050;BME280;7622;42.724;23.250;2024-02-28T03:15:34;94969.44;;;7.37;100.00
15050;BME280;7622;42.724;23.250;2024-02-28T03:18:01;94968.28;;;7.63;100.00
15050;BME280;7622;42.724;23.250;2024-02-28T03:20:28;94981.06;;;7.42;100.00
15050;BME280;7622;42.724;23.250;2024-02-28T03:22:54;94967.69;;;7.37;100.00
15050;BME280;7622;42.724;23.250;2024-02-28T03:25:21;94974.28;;;7.53;100.00
15050;BME280;7622;42.724;23.250;2024-02-28T03:27:48;94982.25;;;7.49;100.00
15050;BME280;7622;42.724;23.250;2024-02-28T03:30:15;94978.13;;;7.47;100.00
15050;BME280;7622;42.724;23.250;2024-02-28T03:32:43;94973.56;;;7.50;100.00
15050;BME280;7622;42.724;23.250;2024-02-28T03:35:09;94978.63;;;7.63;100.00
15050;BME280;7622;42.724;23.250;2024-02-28T03:37:36;94980.03;;;7.56;100.00
15050;BME280;7622;42.724;23.250;2024-02-28T03:40:03;94937.84;;;7.22;100.00
15050;BME280;7622;42.724;23.250;2024-02-28T03:42:31;94988.34;;;7.48;100.00
15050;BME280;7622;42.724;23.250;2024-02-28T03:44:57;94981.56;;;7.59;100.00
15050;BME280;7622;42.724;23.250;2024-02-28T03:47:24;94979.66;;;7.49;100.00
15050;BME280;7622;42.724;23.250;2024-02-28T03:49:52;94986.84;;;7.46;100.00
15050;BME280;7622;42.724;23.250;2024-02-28T03:52:22;94980.84;;;7.45;100.00
15050;BME280;7622;42.724;23.250;2024-02-28T03:54:49;94982.63;;;7.45;100.00
15050;BME280;7622;42.724;23.250;2024-02-28T03:57:16;94977.19;;;7.37;100.00
15050;BME280;7622;42.724;23.250;2024-02-28T03:59:42;94985.53;;;7.29;100.00
15050;BME280;7622;42.724;23.250;2024-02-28T04:02:09;94986.50;;;7.39;100.00
15050;BME280;7622;42.724;23.250;2024-02-28T04:04:36;94983.19;;;7.37;100.00
15050;BME280;7622;42.724;23.250;2024-02-28T04:07:04;94987.69;;;7.46;100.00
15050;BME280;7622;42.724;23.250;2024-02-28T04:09:31;94984.25;;;7.68;100.00
15050;BME280;7622;42.724;23.250;2024-02-28T04:11:57;94983.22;;;7.60;100.00
15050;BME280;7622;42.724;23.250;2024-02-28T04:14:24;94984.59;;;7.41;100.00
15050;BME280;7622;42.724;23.250;2024-02-28T04:16:51;94978.59;;;7.41;100.00
15050;BME280;7622;42.724;23.250;2024-02-28T04:19:17;94989.09;;;7.39;100.00
15050;BME280;7622;42.724;23.250;2024-02-28T04:21:44;94980.81;;;7.34;100.00
15050;BME280;7622;42.724;23.250;2024-02-28T04:24:12;94977.66;;;7.31;100.00
15050;BME280;7622;42.724;23.250;2024-02-28T04:26:39;94983.88;;;7.28;100.00
15050;BME280;7622;42.724;23.250;2024-02-28T04:29:05;94979.06;;;7.35;100.00
15050;BME280;7622;42.724;23.250;2024-02-28T04:31:39;94964.81;;;7.07;100.00
15050;BME280;7622;42.724;23.250;2024-02-28T04:34:05;94979.69;;;7.38;100.00
15050;BME280;7622;42.724;23.250;2024-02-28T04:36:32;94977.19;;;7.37;100.00
15050;BME280;7622;42.724;23.250;2024-02-28T04:38:59;94979.19;;;7.22;100.00
15050;BME280;7622;42.724;23.250;2024-02-28T04:41:27;94971.78;;;7.18;100.00
15050;BME280;7622;42.724;23.250;2024-02-28T04:43:54;94978.25;;;7.12;100.00
15050;BME280;7622;42.724;23.250;2024-02-28T04:46:21;94986.88;;;6.89;100.00
15050;BME280;7622;42.724;23.250;2024-02-28T04:48:47;94982.97;;;6.83;100.00
15050;BME280;7622;42.724;23.250;2024-02-28T04:51:15;94981.97;;;6.97;100.00
15050;BME280;7622;42.724;23.250;2024-02-28T04:53:43;94988.97;;;6.84;100.00
15050;BME280;7622;42.724;23.250;2024-02-28T04:56:09;94996.19;;;6.79;100.00
15050;BME280;7622;42.724;23.250;2024-02-28T04:58:38;94992.25;;;6.86;100.00
15050;BME280;7622;42.724;23.250;2024-02-28T05:01:04;94995.53;;;6.88;100.00
15050;BME280;7622;42.724;23.250;2024-02-28T05:03:31;95004.09;;;6.77;100.00
15050;BME280;7622;42.724;23.250;2024-02-28T05:05:58;95008.66;;;6.85;100.00
15050;BME280;7622;42.724;23.250;2024-02-28T05:08:25;94995.53;;;6.88;100.00
15050;BME280;7622;42.724;23.250;2024-02-28T05:10:52;94994.59;;;6.78;100.00
15050;BME280;7622;42.724;23.250;2024-02-28T05:13:19;95016.28;;;6.75;100.00
15050;BME280;7622;42.724;23.250;2024-02-28T05:15:48;95016.16;;;6.77;100.00
15050;BME280;7622;42.724;23.250;2024-02-28T05:18:16;95018.75;;;6.77;100.00
15050;BME280;7622;42.724;23.250;2024-02-28T05:20:43;95014.53;;;6.87;100.00
15050;BME280;7622;42.724;23.250;2024-02-28T05:23:09;95016.91;;;6.90;100.00
15050;BME280;7622;42.724;23.250;2024-02-28T05:25:37;95027.38;;;6.99;100.00
15050;BME280;7622;42.724;23.250;2024-02-28T05:28:04;95016.94;;;7.01;100.00
15050;BME280;7622;42.724;23.250;2024-02-28T05:30:31;95024.41;;;6.93;100.00
15050;BME280;7622;42.724;23.250;2024-02-28T05:32:59;95038.63;;;6.98;100.00
15050;BME280;7622;42.724;23.250;2024-02-28T05:35:26;95035.50;;;7.06;100.00
15050;BME280;7622;42.724;23.250;2024-02-28T05:37:53;95038.38;;;7.25;100.00
15050;BME280;7622;42.724;23.250;2024-02-28T05:40:20;95036.53;;;7.38;100.00
15050;BME280;7622;42.724;23.250;2024-02-28T05:42:48;95044.44;;;7.59;100.00
15050;BME280;7622;42.724;23.250;2024-02-28T05:45:18;95048.31;;;7.65;100.00
15050;BME280;7622;42.724;23.250;2024-02-28T05:47:47;95049.00;;;7.78;100.00
15050;BME280;7622;42.724;23.250;2024-02-28T05:50:17;95058.06;;;8.28;100.00
15050;BME280;7622;42.724;23.250;2024-02-28T05:52:46;95060.06;;;8.36;100.00
15050;BME280;7622;42.724;23.250;2024-02-28T05:55:15;95056.75;;;8.45;100.00
15050;BME280;7622;42.724;23.250;2024-02-28T05:57:42;95060.50;;;8.63;100.00
15050;BME280;7622;42.724;23.250;2024-02-28T06:00:09;95056.66;;;8.78;100.00
15050;BME280;7622;42.724;23.250;2024-02-28T06:02:36;95064.72;;;8.96;100.00
15050;BME280;7622;42.724;23.250;2024-02-28T06:05:04;95054.84;;;9.22;100.00
15050;BME280;7622;42.724;23.250;2024-02-28T06:07:32;95055.44;;;9.46;100.00
15050;BME280;7622;42.724;23.250;2024-02-28T06:09:59;95055.63;;;9.84;100.00
15050;BME280;7622;42.724;23.250;2024-02-28T06:12:25;95068.16;;;10.10;100.00
15050;BME280;7622;42.724;23.250;2024-02-28T06:14:52;95062.66;;;9.94;100.00
15050;BME280;7622;42.724;23.250;2024-02-28T06:17:20;95069.22;;;10.78;100.00
15050;BME280;7622;42.724;23.250;2024-02-28T06:19:47;95070.06;;;10.97;100.00
15050;BME280;7622;42.724;23.250;2024-02-28T06:22:13;95068.28;;;11.07;100.00
15050;BME280;7622;42.724;23.250;2024-02-28T06:24:41;95073.31;;;10.80;100.00
15050;BME280;7622;42.724;23.250;2024-02-28T06:27:08;95079.09;;;10.84;100.00
15050;BME280;7622;42.724;23.250;2024-02-28T06:29:37;95076.47;;;10.84;100.00
15050;BME280;7622;42.724;23.250;2024-02-28T06:32:04;95075.47;;;10.65;100.00
15050;BME280;7622;42.724;23.250;2024-02-28T06:34:31;95077.13;;;10.66;100.00
15050;BME280;7622;42.724;23.250;2024-02-28T06:36:58;95080.06;;;10.92;100.00
15050;BME280;7622;42.724;23.250;2024-02-28T06:39:24;95019.34;;;10.24;100.00
15050;BME280;7622;42.724;23.250;2024-02-28T06:41:52;95076.53;;;10.44;100.00
15050;BME280;7622;42.724;23.250;2024-02-28T06:44:19;95081.69;;;10.84;100.00
15050;BME280;7622;42.724;23.250;2024-02-28T06:46:46;95084.00;;;11.35;100.00
15050;BME280;7622;42.724;23.250;2024-02-28T06:49:13;95080.53;;;11.92;100.00
15050;BME280;7622;42.724;23.250;2024-02-28T06:51:39;95088.06;;;12.32;100.00
15050;BME280;7622;42.724;23.250;2024-02-28T06:54:06;95089.94;;;12.94;100.00
15050;BME280;7622;42.724;23.250;2024-02-28T06:56:33;95107.50;;;12.75;100.00
15050;BME280;7622;42.724;23.250;2024-02-28T06:59:01;95098.22;;;13.08;100.00
15050;BME280;7622;42.724;23.250;2024-02-28T07:01:29;95059.34;;;12.96;100.00
15050;BME280;7622;42.724;23.250;2024-02-28T07:03:55;95096.41;;;13.53;100.00
15050;BME280;7622;42.724;23.250;2024-02-28T07:06:22;95092.00;;;13.36;100.00
15050;BME280;7622;42.724;23.250;2024-02-28T07:08:49;95085.75;;;13.47;100.00
15050;BME280;7622;42.724;23.250;2024-02-28T07:11:16;95085.72;;;13.64;100.00
15050;BME280;7622;42.724;23.250;2024-02-28T07:13:42;95078.28;;;14.21;100.00
15050;BME280;7622;42.724;23.250;2024-02-28T07:16:10;95087.91;;;14.20;97.32
15050;BME280;7622;42.724;23.250;2024-02-28T07:18:37;95092.13;;;14.81;89.82
15050;BME280;7622;42.724;23.250;2024-02-28T07:21:04;95093.06;;;14.38;93.46
15050;BME280;7622;42.724;23.250;2024-02-28T07:23:32;95095.94;;;14.53;92.24
15050;BME280;7622;42.724;23.250;2024-02-28T07:25:58;95101.94;;;14.87;88.45
15050;BME280;7622;42.724;23.250;2024-02-28T07:28:25;95093.19;;;14.63;90.50
15050;BME280;7622;42.724;23.250;2024-02-28T07:30:52;95096.31;;;14.66;88.94
15050;BME280;7622;42.724;23.250;2024-02-28T07:33:20;95092.78;;;14.41;95.70
15050;BME280;7622;42.724;23.250;2024-02-28T07:35:47;95062.94;;;14.60;96.58
15050;BME280;7622;42.724;23.250;2024-02-28T07:38:13;95097.53;;;14.88;94.35
15050;BME280;7622;42.724;23.250;2024-02-28T07:40:42;95102.50;;;15.15;90.77
15050;BME280;7622;42.724;23.250;2024-02-28T07:43:09;95103.84;;;15.35;87.97
15050;BME280;7622;42.724;23.250;2024-02-28T07:45:36;95102.28;;;15.59;83.91
15050;BME280;7622;42.724;23.250;2024-02-28T07:48:03;95080.84;;;15.71;83.45
15050;BME280;7622;42.724;23.250;2024-02-28T07:50:31;95098.44;;;16.34;75.96
15050;BME280;7622;42.724;23.250;2024-02-28T07:52:58;95108.16;;;16.01;74.33
15050;BME280;7622;42.724;23.250;2024-02-28T07:55:24;95106.69;;;16.78;70.79
15050;BME280;7622;42.724;23.250;2024-02-28T07:57:51;95104.13;;;16.62;70.67
15050;BME280;7622;42.724;23.250;2024-02-28T08:00:19;95107.66;;;16.85;69.53
15050;BME280;7622;42.724;23.250;2024-02-28T08:02:46;95102.53;;;16.92;69.38
15050;BME280;7622;42.724;23.250;2024-02-28T08:05:13;95095.97;;;17.73;65.86
15050;BME280;7622;42.724;23.250;2024-02-28T08:07:41;95107.41;;;17.34;65.51
15050;BME280;7622;42.724;23.250;2024-02-28T08:10:08;95046.91;;;16.97;66.22
15050;BME280;7622;42.724;23.250;2024-02-28T08:12:36;95104.31;;;17.53;64.92
15050;BME280;7622;42.724;23.250;2024-02-28T08:15:03;95101.91;;;17.44;66.07
15050;BME280;7622;42.724;23.250;2024-02-28T08:17:30;95102.44;;;17.85;63.93
15050;BME280;7622;42.724;23.250;2024-02-28T08:19:57;95096.03;;;17.87;62.72
15050;BME280;7622;42.724;23.250;2024-02-28T08:22:24;95095.81;;;17.43;64.87
15050;BME280;7622;42.724;23.250;2024-02-28T08:24:52;95094.88;;;17.13;66.48
15050;BME280;7622;42.724;23.250;2024-02-28T08:27:19;95092.31;;;16.66;69.04
15050;BME280;7622;42.724;23.250;2024-02-28T08:29:48;95086.31;;;16.25;73.60
15050;BME280;7622;42.724;23.250;2024-02-28T08:32:16;95085.41;;;16.10;75.86
15050;BME280;7622;42.724;23.250;2024-02-28T08:34:44;95089.97;;;16.08;77.78
15050;BME280;7622;42.724;23.250;2024-02-28T08:37:11;95083.88;;;16.32;75.61
15050;BME280;7622;42.724;23.250;2024-02-28T08:39:38;95087.47;;;16.31;77.13
15050;BME280;7622;42.724;23.250;2024-02-28T08:42:06;95077.00;;;16.31;77.07
15050;BME280;7622;42.724;23.250;2024-02-28T08:44:33;95084.66;;;16.40;76.97
15050;BME280;7622;42.724;23.250;2024-02-28T08:47:00;95074.44;;;17.01;70.77
15050;BME280;7622;42.724;23.250;2024-02-28T08:49:26;95081.81;;;17.51;69.40
15050;BME280;7622;42.724;23.250;2024-02-28T08:51:53;95085.34;;;17.66;65.83
15050;BME280;7622;42.724;23.250;2024-02-28T08:54:20;95077.28;;;17.90;64.84
15050;BME280;7622;42.724;23.250;2024-02-28T08:56:46;95073.06;;;18.33;62.54
15050;BME280;7622;42.724;23.250;2024-02-28T08:59:14;95072.75;;;18.66;61.60
15050;BME280;7622;42.724;23.250;2024-02-28T09:01:41;95080.72;;;18.87;59.30
15050;BME280;7622;42.724;23.250;2024-02-28T09:04:08;95082.59;;;18.34;60.57
15050;BME280;7622;42.724;23.250;2024-02-28T09:06:35;95079.44;;;18.83;59.33
15050;BME280;7622;42.724;23.250;2024-02-28T09:09:02;95084.84;;;18.96;58.14
15050;BME280;7622;42.724;23.250;2024-02-28T09:11:29;95081.09;;;19.56;57.28
15050;BME280;7622;42.724;23.250;2024-02-28T09:13:55;95081.09;;;19.77;55.03
15050;BME280;7622;42.724;23.250;2024-02-28T09:16:23;95081.47;;;19.17;55.62
15050;BME280;7622;42.724;23.250;2024-02-28T09:18:50;95078.31;;;18.33;58.26
15050;BME280;7622;42.724;23.250;2024-02-28T09:21:17;95085.94;;;18.14;58.50
15050;BME280;7622;42.724;23.250;2024-02-28T09:23:44;95076.03;;;18.01;59.34
15050;BME280;7622;42.724;23.250;2024-02-28T09:26:10;95068.34;;;18.14;58.23
15050;BME280;7622;42.724;23.250;2024-02-28T09:28:38;95045.41;;;17.70;59.60
15050;BME280;7622;42.724;23.250;2024-02-28T09:31:05;95064.91;;;17.53;60.07
15050;BME280;7622;42.724;23.250;2024-02-28T09:33:33;95065.72;;;17.31;61.32
15050;BME280;7622;42.724;23.250;2024-02-28T09:36:01;95060.53;;;17.46;61.61
15050;BME280;7622;42.724;23.250;2024-02-28T09:38:28;95058.50;;;17.33;61.16
15050;BME280;7622;42.724;23.250;2024-02-28T09:40:55;95054.16;;;17.17;62.72
15050;BME280;7622;42.724;23.250;2024-02-28T09:43:31;95051.53;;;17.86;61.02
15050;BME280;7622;42.724;23.250;2024-02-28T09:46:03;95053.09;;;17.95;59.53
15050;BME280;7622;42.724;23.250;2024-02-28T09:48:30;95052.72;;;17.98;60.28
15050;BME280;7622;42.724;23.250;2024-02-28T09:50:59;95045.78;;;18.49;58.31
15050;BME280;7622;42.724;23.250;2024-02-28T09:53:26;95042.16;;;18.50;57.51
15050;BME280;7622;42.724;23.250;2024-02-28T09:55:53;95042.97;;;18.21;57.71
15050;BME280;7622;42.724;23.250;2024-02-28T09:58:20;95039.28;;;17.93;58.05
15050;BME280;7622;42.724;23.250;2024-02-28T10:00:48;95043.28;;;17.89;58.47
15050;BME280;7622;42.724;23.250;2024-02-28T10:03:17;95043.78;;;17.69;58.44
15050;BME280;7622;42.724;23.250;2024-02-28T10:05:45;95028.13;;;17.53;59.32
15050;BME280;7622;42.724;23.250;2024-02-28T10:08:17;95039.47;;;17.31;61.07
15050;BME280;7622;42.724;23.250;2024-02-28T10:10:45;95035.47;;;16.89;63.03
15050;BME280;7622;42.724;23.250;2024-02-28T10:13:13;95028.22;;;16.91;63.08
15050;BME280;7622;42.724;23.250;2024-02-28T10:15:40;95033.13;;;16.55;69.04
15050;BME280;7622;42.724;23.250;2024-02-28T10:18:07;95036.69;;;16.32;75.84
15050;BME280;7622;42.724;23.250;2024-02-28T10:20:34;95035.09;;;16.06;70.91
15050;BME280;7622;42.724;23.250;2024-02-28T10:23:03;95027.28;;;15.90;71.03
15050;BME280;7622;42.724;23.250;2024-02-28T10:25:31;95026.59;;;16.04;69.77
15050;BME280;7622;42.724;23.250;2024-02-28T10:27:59;95019.38;;;16.06;68.79
15050;BME280;7622;42.724;23.250;2024-02-28T10:30:26;95008.56;;;16.18;69.18
15050;BME280;7622;42.724;23.250;2024-02-28T10:32:53;95013.63;;;16.58;67.83
15050;BME280;7622;42.724;23.250;2024-02-28T10:35:21;95011.47;;;17.01;65.89
15050;BME280;7622;42.724;23.250;2024-02-28T10:37:51;95010.84;;;16.90;63.80
15050;BME280;7622;42.724;23.250;2024-02-28T10:40:19;95005.44;;;16.61;64.42
15050;BME280;7622;42.724;23.250;2024-02-28T10:42:48;95001.13;;;17.82;61.10
15050;BME280;7622;42.724;23.250;2024-02-28T10:45:17;94989.06;;;18.46;57.86
15050;BME280;7622;42.724;23.250;2024-02-28T10:47:45;95000.06;;;18.65;57.22
15050;BME280;7622;42.724;23.250;2024-02-28T10:50:12;94984.19;;;18.94;55.93
15050;BME280;7622;42.724;23.250;2024-02-28T10:52:44;94986.09;;;19.21;55.18
15050;BME280;7622;42.724;23.250;2024-02-28T10:55:14;94988.59;;;20.06;52.36
15050;BME280;7622;42.724;23.250;2024-02-28T10:57:43;94988.81;;;20.33;52.08
15050;BME280;7622;42.724;23.250;2024-02-28T11:00:15;94985.69;;;20.64;50.64
15050;BME280;7622;42.724;23.250;2024-02-28T11:02:43;94993.53;;;21.05;49.92
15050;BME280;7622;42.724;23.250;2024-02-28T11:05:10;94977.00;;;21.50;48.77
15050;BME280;7622;42.724;23.250;2024-02-28T11:07:40;94979.63;;;21.64;48.01
15050;BME280;7622;42.724;23.250;2024-02-28T11:10:08;94976.56;;;21.27;48.14
15050;BME280;7622;42.724;23.250;2024-02-28T11:12:35;94970.47;;;21.59;47.79
15050;BME280;7622;42.724;23.250;2024-02-28T11:15:04;94960.28;;;21.83;46.61
15050;BME280;7622;42.724;23.250;2024-02-28T11:17:33;94964.13;;;22.07;46.09
15050;BME280;7622;42.724;23.250;2024-02-28T11:20:00;94965.16;;;21.99;45.95
15050;BME280;7622;42.724;23.250;2024-02-28T11:22:37;94954.81;;;21.51;46.31
15050;BME280;7622;42.724;23.250;2024-02-28T11:25:04;94958.81;;;21.08;46.87
15050;BME280;7622;42.724;23.250;2024-02-28T11:27:31;94949.66;;;20.09;48.32
15050;BME280;7622;42.724;23.250;2024-02-28T11:29:58;94963.13;;;19.58;49.52
15050;BME280;7622;42.724;23.250;2024-02-28T11:32:25;94950.44;;;20.02;49.01
15050;BME280;7622;42.724;23.250;2024-02-28T11:34:56;94941.31;;;20.33;47.97
15050;BME280;7622;42.724;23.250;2024-02-28T11:37:22;94950.59;;;20.76;47.71
15050;BME280;7622;42.724;23.250;2024-02-28T11:39:49;94949.50;;;20.51;48.04
15050;BME280;7622;42.724;23.250;2024-02-28T11:42:16;94934.34;;;20.73;46.65
15050;BME280;7622;42.724;23.250;2024-02-28T11:44:52;94942.81;;;21.55;45.25
15050;BME280;7622;42.724;23.250;2024-02-28T11:47:19;94940.34;;;21.14;46.01
15050;BME280;7622;42.724;23.250;2024-02-28T11:49:46;94935.72;;;20.62;46.89
15050;BME280;7622;42.724;23.250;2024-02-28T11:52:14;94935.00;;;20.95;46.33
15050;BME280;7622;42.724;23.250;2024-02-28T11:54:41;94931.13;;;20.91;46.10
15050;BME280;7622;42.724;23.250;2024-02-28T11:57:07;94929.88;;;20.26;47.11
15050;BME280;7622;42.724;23.250;2024-02-28T11:59:39;94912.72;;;20.43;46.77
15050;BME280;7622;42.724;23.250;2024-02-28T12:02:11;94918.78;;;20.37;46.63
15050;BME280;7622;42.724;23.250;2024-02-28T12:04:38;94919.88;;;20.56;46.57
15050;BME280;7622;42.724;23.250;2024-02-28T12:07:05;94916.00;;;20.11;47.28
15050;BME280;7622;42.724;23.250;2024-02-28T12:09:33;94910.38;;;20.27;47.14
15050;BME280;7622;42.724;23.250;2024-02-28T12:12:00;94911.44;;;19.91;47.33
15050;BME280;7622;42.724;23.250;2024-02-28T12:14:31;94903.06;;;20.22;46.93
15050;BME280;7622;42.724;23.250;2024-02-28T12:16:58;94906.13;;;20.26;47.01
15050;BME280;7622;42.724;23.250;2024-02-28T12:19:25;94899.81;;;20.20;47.03
15050;BME280;7622;42.724;23.250;2024-02-28T12:21:52;94897.38;;;20.19;46.96
15050;BME280;7622;42.724;23.250;2024-02-28T12:24:18;94892.44;;;19.68;48.06
15050;BME280;7622;42.724;23.250;2024-02-28T12:26:46;94885.13;;;19.63;47.88
15050;BME280;7622;42.724;23.250;2024-02-28T12:29:13;94888.75;;;19.62;48.34
15050;BME280;7622;42.724;23.250;2024-02-28T12:31:40;94886.47;;;19.32;48.61
15050;BME280;7622;42.724;23.250;2024-02-28T12:34:07;94881.75;;;18.99;49.01
15050;BME280;7622;42.724;23.250;2024-02-28T12:36:33;94883.81;;;18.82;49.22
15050;BME280;7622;42.724;23.250;2024-02-28T12:39:00;94890.28;;;18.59;49.46
15050;BME280;7622;42.724;23.250;2024-02-28T12:41:28;94892.22;;;18.35;50.10
15050;BME280;7622;42.724;23.250;2024-02-28T12:43:56;94877.59;;;17.97;50.72
15050;BME280;7622;42.724;23.250;2024-02-28T12:46:22;94877.69;;;18.03;50.40
15050;BME280;7622;42.724;23.250;2024-02-28T12:48:49;94880.41;;;18.10;50.64
15050;BME280;7622;42.724;23.250;2024-02-28T12:51:34;94872.84;;;18.22;50.62
15050;BME280;7622;42.724;23.250;2024-02-28T12:54:01;94884.47;;;17.98;50.95
15050;BME280;7622;42.724;23.250;2024-02-28T12:56:28;94878.78;;;17.80;51.42
15050;BME280;7622;42.724;23.250;2024-02-28T12:58:56;94877.72;;;17.74;51.81
15050;BME280;7622;42.724;23.250;2024-02-28T13:01:23;94869.28;;;17.79;51.53
15050;BME280;7622;42.724;23.250;2024-02-28T13:03:50;94878.03;;;18.00;51.29
15050;BME280;7622;42.724;23.250;2024-02-28T13:06:16;94872.22;;;18.05;50.17